createdAt,value
2023-06-15T00:02:49.009Z,11.30
2023-06-15T00:07:44.034Z,11.20
2023-06-15T00:11:48.306Z,11.10
2023-06-15T00:16:56.605Z,11.10
2023-06-15T00:21:27.066Z,11.00
2023-06-15T00:25:51.884Z,11.00
2023-06-15T00:30:03.574Z,11.00
2023-06-15T00:34:07.911Z,11.00
2023-06-15T00:38:14.512Z,11.00
2023-06-15T00:42:19.962Z,10.90
2023-06-15T00:46:34.011Z,10.90
2023-06-15T00:50:40.518Z,10.90
2023-06-15T00:54:48.031Z,10.90
2023-06-15T00:58:52.911Z,10.90
2023-06-15T01:03:14.193Z,10.90
2023-06-15T01:07:22.202Z,10.90
2023-06-15T01:11:29.729Z,10.90
2023-06-15T01:15:35.877Z,10.90
2023-06-15T01:20:10.489Z,10.80
2023-06-15T01:24:37.004Z,10.80
2023-06-15T01:29:05.065Z,10.70
2023-06-15T01:33:14.206Z,10.70
2023-06-15T01:37:21.314Z,10.60
2023-06-15T01:41:28.598Z,10.50
2023-06-15T01:45:35.052Z,10.50
2023-06-15T01:49:42.044Z,10.40
2023-06-15T01:53:49.774Z,10.40
2023-06-15T02:03:32.762Z,10.30
2023-06-15T02:07:39.793Z,10.20
2023-06-15T02:11:44.034Z,10.20
2023-06-15T02:16:13.718Z,10.20
2023-06-15T02:20:32.721Z,10.20
2023-06-15T02:24:37.028Z,10.20
2023-06-15T02:28:41.713Z,10.20
2023-06-15T02:33:12.382Z,10.20
2023-06-15T02:37:17.951Z,10.10
2023-06-15T02:41:24.852Z,10.10
2023-06-15T02:45:29.405Z,10.10
2023-06-15T02:49:34.844Z,10.10
2023-06-15T02:53:40.612Z,10.10
2023-06-15T02:58:43.711Z,10.10
2023-06-15T03:02:55.525Z,10.20
2023-06-15T03:08:04.060Z,10.50
2023-06-15T03:12:24.609Z,11.10
2023-06-15T03:17:30.006Z,11.70
2023-06-15T03:21:34.361Z,12.60
2023-06-15T03:25:46.042Z,13.50
2023-06-15T03:29:53.953Z,14.40
2023-06-15T03:34:16.981Z,15.30
2023-06-15T03:38:22.294Z,16.30
2023-06-15T03:42:28.194Z,17.30
2023-06-15T03:46:33.809Z,18.40
2023-06-15T03:51:03.171Z,19.50
2023-06-15T03:55:08.578Z,20.50
2023-06-15T03:59:16.755Z,21.60
2023-06-15T04:03:22.372Z,22.50
2023-06-15T04:08:28.911Z,23.60
2023-06-15T04:12:34.817Z,24.60
2023-06-15T04:16:42.766Z,25.80
2023-06-15T04:20:48.860Z,26.70
2023-06-15T04:30:34.215Z,28.60
2023-06-15T04:34:39.394Z,28.80
2023-06-15T04:39:11.166Z,29.60
2023-06-15T04:47:43.831Z,31.60
2023-06-15T04:51:51.803Z,32.90
2023-06-15T04:55:58.115Z,33.90
2023-06-15T05:00:02.606Z,34.90
2023-06-15T05:04:11.736Z,35.90
2023-06-15T05:08:17.969Z,35.80
2023-06-15T05:12:23.871Z,36.00
2023-06-15T05:16:28.274Z,36.70
2023-06-15T05:20:32.436Z,37.60
2023-06-15T05:25:27.884Z,38.50
2023-06-15T05:29:34.597Z,39.20
2023-06-15T05:34:31.795Z,37.30
2023-06-15T05:38:37.478Z,37.80
2023-06-15T05:42:42.749Z,39.00
2023-06-15T05:46:54.546Z,39.90
2023-06-15T05:51:01.882Z,40.60
2023-06-15T05:55:09.004Z,41.20
2023-06-15T06:00:26.758Z,40.70
2023-06-15T06:04:36.901Z,39.30
2023-06-15T06:09:11.693Z,40.00
2023-06-15T06:13:16.550Z,40.50
2023-06-15T06:17:45.944Z,37.80
2023-06-15T06:22:12.341Z,34.40
2023-06-15T06:26:16.509Z,30.80
2023-06-15T06:30:39.563Z,27.60
2023-06-15T06:34:46.516Z,25.30
2023-06-15T06:39:05.872Z,24.20
2023-06-15T06:43:09.713Z,23.70
2023-06-15T06:47:39.416Z,23.60
2023-06-15T06:51:43.955Z,23.20
2023-06-15T06:56:11.067Z,22.60
2023-06-15T07:04:39.008Z,22.30
2023-06-15T07:08:44.685Z,21.90
2023-06-15T07:12:50.359Z,21.60
2023-06-15T07:16:54.543Z,21.30
2023-06-15T07:20:58.857Z,21.00
2023-06-15T07:25:08.205Z,21.00
2023-06-15T08:41:38.606Z,19.90
2023-06-15T08:45:43.737Z,19.90
2023-06-15T08:49:58.066Z,20.00
2023-06-15T08:54:04.662Z,20.30
2023-06-15T08:58:11.835Z,20.60
2023-06-15T09:02:23.532Z,20.80
2023-06-15T09:06:28.890Z,20.70
2023-06-15T09:10:48.788Z,20.30
2023-06-15T09:14:54.598Z,20.30
2023-06-15T09:19:13.238Z,20.50
2023-06-15T09:23:55.987Z,20.20
2023-06-15T09:28:02.299Z,20.00
2023-06-15T09:32:09.552Z,20.40
2023-06-15T09:36:13.216Z,20.40
2023-06-15T09:40:17.391Z,20.20
2023-06-15T09:44:24.755Z,20.20
2023-06-15T09:48:31.802Z,20.00
2023-06-15T09:53:00.519Z,20.10
2023-06-15T09:57:04.435Z,20.20
2023-06-15T10:01:12.052Z,20.60
2023-06-15T10:05:18.922Z,20.60
2023-06-15T10:09:30.111Z,20.40
2023-06-15T10:13:48.836Z,20.50
2023-06-15T10:17:55.316Z,21.10
2023-06-15T10:22:01.970Z,21.40
2023-06-15T10:26:06.226Z,21.40
2023-06-15T10:30:39.939Z,21.50
2023-06-15T10:34:51.871Z,21.40
2023-06-15T10:39:07.965Z,21.40
2023-06-15T10:43:21.261Z,21.50
2023-06-15T10:47:26.897Z,21.70
2023-06-15T10:52:03.039Z,22.10
2023-06-15T10:56:29.037Z,22.30
2023-06-15T11:01:09.983Z,22.70
2023-06-15T11:05:16.051Z,22.40
2023-06-15T11:10:22.420Z,21.90
2023-06-15T11:14:29.302Z,22.10
2023-06-15T11:18:34.267Z,21.90
2023-06-15T11:23:17.738Z,21.50
2023-06-15T11:32:11.975Z,21.40
2023-06-15T11:36:18.044Z,21.50
2023-06-15T12:30:30.124Z,22.60
2023-06-15T12:35:28.189Z,22.70
2023-06-15T12:39:33.937Z,22.50
2023-06-15T12:44:42.446Z,22.50
2023-06-15T12:48:48.283Z,22.50
2023-06-15T12:52:54.341Z,22.40
2023-06-15T12:56:58.110Z,22.20
2023-06-15T13:02:09.379Z,22.20
2023-06-15T13:06:16.702Z,22.20
2023-06-15T13:10:22.246Z,22.20
2023-06-15T13:14:26.357Z,21.90
2023-06-15T13:18:32.201Z,21.70
2023-06-15T13:22:42.354Z,21.60
2023-06-15T13:26:47.003Z,21.40
2023-06-15T13:30:53.556Z,21.80
2023-06-15T13:34:57.833Z,22.00
2023-06-15T13:39:08.272Z,22.30
2023-06-15T13:43:13.949Z,22.50
2023-06-15T13:48:34.629Z,22.60
2023-06-15T13:52:39.796Z,22.70
2023-06-15T13:57:13.117Z,22.90
2023-06-15T14:01:25.602Z,23.20
2023-06-15T14:05:31.317Z,23.60
2023-06-15T14:09:41.727Z,23.90
2023-06-15T14:13:52.300Z,24.20
2023-06-15T14:17:56.396Z,24.20
2023-06-15T14:22:00.360Z,23.70
2023-06-15T14:26:13.797Z,23.50
2023-06-15T14:30:19.550Z,23.80
2023-06-15T14:34:24.551Z,24.20
2023-06-15T14:38:30.049Z,23.30
2023-06-15T14:42:59.120Z,22.90
2023-06-15T14:47:05.084Z,22.60
2023-06-15T14:51:24.703Z,22.30
2023-06-15T14:55:29.801Z,22.10
2023-06-15T14:59:42.906Z,22.30
2023-06-15T15:03:48.351Z,22.70
2023-06-15T15:07:52.670Z,22.50
2023-06-15T15:11:56.958Z,22.80
2023-06-15T15:16:24.228Z,22.40
2023-06-15T15:20:32.214Z,22.20
2023-06-15T15:24:37.296Z,22.50
2023-06-15T15:28:41.874Z,22.90
2023-06-15T15:33:09.718Z,23.40
2023-06-15T15:37:15.079Z,23.80
2023-06-15T15:41:22.899Z,23.90
2023-06-15T15:45:27.151Z,24.10
2023-06-15T15:49:32.270Z,24.00
2023-06-15T15:53:40.031Z,23.70
2023-06-15T15:57:50.584Z,23.70
2023-06-15T16:01:57.457Z,23.20
2023-06-15T16:06:05.169Z,22.90
2023-06-15T16:10:12.197Z,22.60
2023-06-15T16:14:16.358Z,22.60
2023-06-15T16:18:20.884Z,22.70
2023-06-15T16:22:25.884Z,22.30
2023-06-15T16:26:35.810Z,22.20
2023-06-15T16:30:39.795Z,22.40
2023-06-15T16:34:47.957Z,22.20
2023-06-15T16:38:51.796Z,22.30
2023-06-15T16:43:04.651Z,22.40
2023-06-15T16:47:12.259Z,22.30
2023-06-15T16:51:17.635Z,22.40
2023-06-15T16:55:25.113Z,22.40
2023-06-15T17:00:03.753Z,22.20
2023-06-15T17:04:19.986Z,22.20
2023-06-15T17:08:41.244Z,22.00
2023-06-15T17:17:09.711Z,21.80
2023-06-15T17:21:13.743Z,21.60
2023-06-15T17:26:08.954Z,21.40
2023-06-15T17:30:16.027Z,21.10
2023-06-15T17:34:27.069Z,21.00
2023-06-15T17:38:52.910Z,20.80
2023-06-15T17:42:59.480Z,20.60
2023-06-15T17:47:23.135Z,20.50
2023-06-15T17:51:28.790Z,20.30
2023-06-15T17:55:42.276Z,20.20
2023-06-15T17:59:46.377Z,19.90
2023-06-15T18:04:27.417Z,19.90
2023-06-15T18:09:38.600Z,19.70
2023-06-15T18:13:45.406Z,19.50
2023-06-15T18:18:19.156Z,19.40
2023-06-15T18:22:38.752Z,19.20
2023-06-15T18:26:52.918Z,19.00
2023-06-15T18:35:40.428Z,18.90
2023-06-15T18:39:46.130Z,18.70
2023-06-15T18:43:51.554Z,18.50
2023-06-15T18:48:07.160Z,18.30
2023-06-15T18:52:11.557Z,18.00
2023-06-15T18:56:41.810Z,17.80
2023-06-15T19:00:46.879Z,17.60
2023-06-15T19:11:10.920Z,17.20
2023-06-15T19:15:15.036Z,17.00
2023-06-15T19:20:01.509Z,16.90
2023-06-15T19:24:33.288Z,16.80
2023-06-15T19:28:38.792Z,16.60
2023-06-15T19:32:58.137Z,16.60
2023-06-15T19:37:03.473Z,16.30
2023-06-15T19:41:14.104Z,16.30
2023-06-15T19:45:19.914Z,16.30
2023-06-15T19:50:02.352Z,16.10
2023-06-15T19:54:06.590Z,16.00
2023-06-15T20:01:32.545Z,15.90
2023-06-15T20:03:13.630Z,15.80
2023-06-15T20:07:31.236Z,15.70
2023-06-15T20:11:35.560Z,15.50
2023-06-15T20:16:16.561Z,15.40
2023-06-15T20:20:22.461Z,15.20
2023-06-15T20:24:26.550Z,15.00
2023-06-15T20:28:33.985Z,15.00
2023-06-15T20:32:38.077Z,15.00
2023-06-15T20:40:12.802Z,15.00
2023-06-15T20:42:35.855Z,14.80
2023-06-15T20:46:39.934Z,14.80
2023-06-15T20:50:46.365Z,14.70
2023-06-15T20:54:50.515Z,14.60
2023-06-15T20:59:23.090Z,14.60
2023-06-15T21:03:27.232Z,14.50
2023-06-15T21:07:40.052Z,14.50
2023-06-15T21:11:44.184Z,14.40
2023-06-15T21:16:07.630Z,14.30
2023-06-15T21:20:13.916Z,14.30
2023-06-15T21:24:18.229Z,14.20
2023-06-15T21:28:23.646Z,14.10
2023-06-15T21:32:29.704Z,14.10
2023-06-15T21:36:59.474Z,14.00
2023-06-15T21:41:04.577Z,14.00
2023-06-15T21:45:11.395Z,13.90
2023-06-15T21:49:17.176Z,13.80
2023-06-15T21:54:19.411Z,13.90
2023-06-15T21:58:23.745Z,13.80
2023-06-15T22:02:28.600Z,13.70
2023-06-15T22:06:34.038Z,13.80
2023-06-15T22:11:05.791Z,13.70
2023-06-15T22:15:11.004Z,13.60
2023-06-15T22:19:20.045Z,13.60
2023-06-15T22:23:28.269Z,13.50
2023-06-15T22:27:32.431Z,13.60
2023-06-15T22:31:37.044Z,13.50
2023-06-15T22:35:41.213Z,13.50
2023-06-15T22:39:55.399Z,13.50
2023-06-15T22:44:00.527Z,13.40
2023-06-15T22:48:09.112Z,13.40
2023-06-15T22:52:16.686Z,13.40
2023-06-15T22:56:36.276Z,13.40
2023-06-15T23:00:40.550Z,13.40
2023-06-15T23:05:18.309Z,13.30
2023-06-15T23:14:11.602Z,13.30
2023-06-15T23:18:25.725Z,13.20
2023-06-15T23:22:34.949Z,13.20
2023-06-15T23:26:42.698Z,13.20
2023-06-15T23:30:56.921Z,13.10
2023-06-15T23:35:01.564Z,13.10
2023-06-15T23:39:13.269Z,13.10
2023-06-15T23:43:17.486Z,13.00
2023-06-15T23:47:29.524Z,13.00
2023-06-15T23:51:34.114Z,12.90
2023-06-15T23:55:43.514Z,12.90
2023-06-15T23:59:47.817Z,12.90
